Time;durP1;ratioP1;P1;durP2;ratioP2;P2;SDS_P1;SDS_P2;PMS_P1;PMS_P2;Temp;Humidity;BMP_temperature;BMP_pressure;BME280_temperature;BME280_humidity;BME280_pressure;Samples;Min_cycle;Max_cycle;Signal;HPM_P1;HPM_P2
2021/06/26 00:00:21;;;;;;;2.33;1.60;;;21.90;49.40;;;;;;6299050;28;20051;-74
2021/06/26 00:03:28;;;;;;;2.45;1.40;;;21.80;49.50;;;;;;6278711;28;20044;-73
2021/06/26 00:06:29;;;;;;;2.78;1.48;;;21.80;49.50;;;;;;6298552;28;20040;-73
2021/06/26 00:09:30;;;;;;;2.50;1.67;;;21.80;49.50;;;;;;6298430;28;20050;-74
2021/06/26 00:12:32;;;;;;;3.25;1.98;;;21.70;49.60;;;;;;6299318;28;20387;-74
2021/06/26 00:15:35;;;;;;;3.17;2.08;;;21.70;49.70;;;;;;6298910;28;20416;-74
2021/06/26 00:18:36;;;;;;;3.92;2.35;;;21.60;49.90;;;;;;6265395;28;20131;-74
2021/06/26 00:21:37;;;;;;;3.00;2.10;;;21.50;50.00;;;;;;6273543;28;20428;-74
2021/06/26 00:24:38;;;;;;;5.78;2.00;;;21.40;50.10;;;;;;6281165;28;20033;-74
2021/06/26 00:27:39;;;;;;;2.92;1.88;;;21.40;50.30;;;;;;6298446;28;20446;-74
2021/06/26 00:30:41;;;;;;;2.40;1.70;;;21.30;50.50;;;;;;6297343;28;20044;-73
2021/06/26 00:33:42;;;;;;;4.43;1.70;;;21.30;50.60;;;;;;6297442;28;20052;-74
2021/06/26 00:36:43;;;;;;;3.63;2.25;;;21.20;50.70;;;;;;6297812;28;20093;-73
2021/06/26 00:39:45;;;;;;;3.45;2.15;;;21.20;50.70;;;;;;6297993;28;20361;-73
2021/06/26 00:42:46;;;;;;;2.22;1.80;;;21.20;50.80;;;;;;6298775;28;20418;-73
2021/06/26 00:45:48;;;;;;;3.88;2.08;;;21.10;51.10;;;;;;6272910;28;20049;-73
2021/06/26 00:48:49;;;;;;;6.30;2.03;;;21.10;51.10;;;;;;6294771;28;20047;-73
2021/06/26 00:51:51;;;;;;;2.75;1.50;;;21.00;51.00;;;;;;6256298;28;20037;-73
2021/06/26 00:54:53;;;;;;;2.40;1.73;;;21.00;51.20;;;;;;6281190;28;20093;-74
2021/06/26 00:57:58;;;;;;;3.70;1.92;;;21.00;51.30;;;;;;6298089;28;20024;-74
2021/06/26 01:00:59;;;;;;;4.22;1.65;;;21.00;51.40;;;;;;6297496;28;20037;-74
2021/06/26 01:04:00;;;;;;;10.35;2.00;;;21.00;51.60;;;;;;6313546;28;20032;-74
2021/06/26 01:07:01;;;;;;;2.28;1.80;;;21.00;51.70;;;;;;6322511;28;20477;-73
2021/06/26 01:10:04;;;;;;;2.13;1.58;;;21.00;51.80;;;;;;6322562;28;20521;-73
2021/06/26 01:13:06;;;;;;;14.93;2.35;;;21.00;51.80;;;;;;6305787;28;20043;-74
2021/06/26 01:16:07;;;;;;;3.55;1.90;;;21.00;51.80;;;;;;6323941;28;20123;-73
2021/06/26 01:19:10;;;;;;;4.28;2.00;;;20.90;51.80;;;;;;6322719;28;20109;-75
2021/06/26 01:22:15;;;;;;;1.48;1.35;;;20.90;51.90;;;;;;6288532;28;20069;-73
2021/06/26 01:25:22;;;;;;;2.70;1.80;;;21.00;52.00;;;;;;6277702;28;20052;-73
2021/06/26 01:28:24;;;;;;;7.25;2.05;;;20.90;52.10;;;;;;6293763;28;20149;-73
2021/06/26 01:31:25;;;;;;;3.53;1.67;;;21.00;52.20;;;;;;6302454;28;20047;-73
2021/06/26 01:34:26;;;;;;;4.00;1.92;;;21.00;52.10;;;;;;6325167;28;20039;-74
2021/06/26 01:37:27;;;;;;;2.65;1.92;;;20.90;52.20;;;;;;6327799;28;20024;-73
2021/06/26 01:40:29;;;;;;;7.68;1.65;;;20.90;52.20;;;;;;6327470;28;20047;-73
2021/06/26 01:43:32;;;;;;;6.35;2.38;;;20.90;52.40;;;;;;6328313;28;20043;-73
2021/06/26 01:46:33;;;;;;;4.53;1.92;;;20.90;52.50;;;;;;6327135;28;20174;-73
2021/06/26 01:49:36;;;;;;;2.78;1.80;;;20.90;52.80;;;;;;6326999;28;20036;-75
2021/06/26 01:52:37;;;;;;;3.47;1.73;;;20.90;53.00;;;;;;6327312;28;20385;-75
2021/06/26 01:55:39;;;;;;;4.65;1.95;;;20.90;53.10;;;;;;6327153;28;20035;-74
2021/06/26 01:58:40;;;;;;;2.60;1.60;;;20.90;53.00;;;;;;6325649;28;20069;-73
2021/06/26 02:01:41;;;;;;;3.97;1.73;;;20.90;53.00;;;;;;6301024;28;20132;-73
2021/06/26 02:04:42;;;;;;;4.47;2.40;;;20.80;52.90;;;;;;6301136;28;20094;-73
2021/06/26 02:07:45;;;;;;;5.25;2.78;;;20.80;53.00;;;;;;6301717;28;20485;-72
2021/06/26 02:10:46;;;;;;;10.18;3.17;;;20.80;53.10;;;;;;6300822;28;20123;-73
2021/06/26 02:13:47;;;;;;;6.60;3.45;;;20.70;53.10;;;;;;6301468;28;20041;-74
2021/06/26 02:16:49;;;;;;;7.63;4.30;;;20.70;53.20;;;;;;6301264;28;20123;-73
2021/06/26 02:19:50;;;;;;;5.25;2.88;;;20.70;53.30;;;;;;6301156;28;20064;-73
2021/06/26 02:22:52;;;;;;;6.50;3.30;;;20.70;53.40;;;;;;6300927;28;20072;-73
2021/06/26 02:25:54;;;;;;;4.75;2.50;;;20.60;53.30;;;;;;6300559;28;20044;-73
2021/06/26 02:28:55;;;;;;;4.53;2.25;;;20.60;53.40;;;;;;6300998;28;20044;-73
2021/06/26 02:31:56;;;;;;;10.95;2.20;;;20.60;53.40;;;;;;6300685;28;20036;-73
2021/06/26 02:34:57;;;;;;;3.05;2.20;;;20.60;53.40;;;;;;6300815;28;20047;-73
2021/06/26 02:37:58;;;;;;;4.88;2.10;;;20.60;53.50;;;;;;6301873;28;20032;-74
2021/06/26 02:41:00;;;;;;;3.22;2.00;;;20.60;53.50;;;;;;6300058;28;20048;-74
2021/06/26 02:44:01;;;;;;;2.97;1.90;;;20.50;53.60;;;;;;6284256;28;20028;-74
2021/06/26 02:47:02;;;;;;;2.63;1.65;;;20.50;53.70;;;;;;6300509;28;20046;-74
2021/06/26 02:50:05;;;;;;;4.57;2.10;;;20.40;53.70;;;;;;6299517;28;20037;-74
2021/06/26 02:53:07;;;;;;;4.53;1.90;;;20.40;53.80;;;;;;6300275;28;20033;-73
2021/06/26 02:56:08;;;;;;;2.15;1.55;;;20.40;53.80;;;;;;6300476;28;20111;-74
2021/06/26 02:59:09;;;;;;;6.82;1.90;;;20.40;53.80;;;;;;6300276;28;20044;-73
2021/06/26 03:02:12;;;;;;;4.25;2.15;;;20.30;53.80;;;;;;6300783;28;20052;-73
2021/06/26 03:05:13;;;;;;;3.47;2.50;;;20.30;53.80;;;;;;6300377;28;20476;-73
2021/06/26 03:08:14;;;;;;;2.83;1.85;;;20.30;53.90;;;;;;6317129;28;20462;-73
2021/06/26 03:11:16;;;;;;;3.35;1.73;;;20.30;53.90;;;;;;6299825;28;20120;-73
2021/06/26 03:14:17;;;;;;;5.63;2.25;;;20.30;54.00;;;;;;6299627;28;20060;-73
2021/06/26 03:17:18;;;;;;;2.72;2.10;;;20.30;54.10;;;;;;6299734;28;20058;-73
2021/06/26 03:20:19;;;;;;;4.57;1.98;;;20.30;54.10;;;;;;6299900;28;20417;-73
2021/06/26 03:23:22;;;;;;;2.65;1.95;;;20.20;54.20;;;;;;6299067;28;20105;-73
2021/06/26 03:26:23;;;;;;;12.07;2.17;;;20.20;54.30;;;;;;6300675;28;20486;-73
2021/06/26 03:29:24;;;;;;;5.38;2.00;;;20.20;54.50;;;;;;6299764;28;20469;-73
2021/06/26 03:32:25;;;;;;;8.43;1.85;;;20.10;54.60;;;;;;6295330;28;20035;-73
2021/06/26 03:35:26;;;;;;;8.20;2.20;;;20.10;54.80;;;;;;6299271;28;20048;-73
2021/06/26 03:38:27;;;;;;;2.72;2.03;;;20.10;54.90;;;;;;6299253;28;20044;-74
2021/06/26 03:41:29;;;;;;;2.97;1.90;;;20.00;55.00;;;;;;6299196;28;20060;-73
2021/06/26 03:44:30;;;;;;;3.20;2.30;;;20.00;55.00;;;;;;6298630;28;20375;-73
2021/06/26 03:47:31;;;;;;;2.53;1.80;;;20.00;55.00;;;;;;6282363;28;20029;-73
2021/06/26 03:50:34;;;;;;;5.65;2.53;;;20.00;54.90;;;;;;6282675;28;20028;-73
2021/06/26 03:53:36;;;;;;;4.60;2.08;;;20.00;55.00;;;;;;6266047;28;20028;-73
2021/06/26 03:56:37;;;;;;;3.10;2.33;;;20.10;55.00;;;;;;6296605;28;20041;-74
2021/06/26 03:59:38;;;;;;;5.28;2.00;;;20.10;55.20;;;;;;6299256;28;20051;-74
2021/06/26 04:02:39;;;;;;;2.78;2.13;;;20.10;55.20;;;;;;6296952;28;20029;-73
2021/06/26 04:05:42;;;;;;;6.43;2.38;;;20.10;55.50;;;;;;6298973;28;20041;-73
2021/06/26 04:09:08;;;;;;;3.70;1.77;;;20.00;55.50;;;;;;6298267;28;20032;-72
2021/06/26 04:12:09;;;;;;;4.00;2.38;;;20.00;55.30;;;;;;6297486;28;20028;-75
2021/06/26 04:15:11;;;;;;;5.50;2.25;;;20.00;55.20;;;;;;6298069;28;20043;-74
2021/06/26 04:18:12;;;;;;;6.18;1.95;;;19.90;55.10;;;;;;6313857;28;20064;-74
2021/06/26 04:21:13;;;;;;;4.32;2.13;;;19.90;55.10;;;;;;6280385;28;20053;-74
2021/06/26 04:24:14;;;;;;;3.35;2.10;;;19.90;55.20;;;;;;6297059;28;20093;-74
2021/06/26 04:27:16;;;;;;;3.78;2.13;;;19.90;55.30;;;;;;6282161;28;20033;-74
2021/06/26 04:30:17;;;;;;;4.25;2.28;;;19.80;55.30;;;;;;6270927;28;20032;-74
2021/06/26 04:33:19;;;;;;;5.18;2.03;;;19.80;55.50;;;;;;6277342;28;20037;-74
2021/06/26 04:36:21;;;;;;;4.18;1.73;;;19.70;55.40;;;;;;6296871;28;20335;-74
2021/06/26 04:39:22;;;;;;;2.92;2.00;;;19.80;55.40;;;;;;6297150;28;20047;-74
2021/06/26 04:42:23;;;;;;;3.10;2.00;;;19.80;55.30;;;;;;6296998;28;20119;-74
2021/06/26 04:45:24;;;;;;;3.28;1.90;;;19.80;55.20;;;;;;6297517;28;20106;-74
2021/06/26 04:48:28;;;;;;;5.80;2.05;;;19.80;55.30;;;;;;6295825;28;20058;-74
2021/06/26 04:51:29;;;;;;;4.50;2.22;;;19.80;55.20;;;;;;6313308;28;20032;-74
2021/06/26 04:54:30;;;;;;;3.88;2.38;;;19.80;55.20;;;;;;6296158;28;20098;-73
2021/06/26 04:57:32;;;;;;;5.30;2.97;;;19.80;55.10;;;;;;6312826;28;20036;-73
2021/06/26 05:00:33;;;;;;;8.05;3.53;;;19.90;55.10;;;;;;6296571;28;20047;-73
2021/06/26 05:03:34;;;;;;;6.80;2.97;;;19.90;55.20;;;;;;6286549;28;20465;-74
2021/06/26 05:06:35;;;;;;;10.02;4.20;;;19.90;55.20;;;;;;6271665;28;20041;-73
2021/06/26 05:09:36;;;;;;;11.82;3.65;;;19.90;55.20;;;;;;6279623;28;20063;-74
2021/06/26 05:12:44;;;;;;;10.88;4.15;;;19.90;55.30;;;;;;6295898;28;20458;-74
2021/06/26 05:15:45;;;;;;;11.73;4.93;;;19.90;55.30;;;;;;6312885;28;20051;-73
2021/06/26 05:18:46;;;;;;;10.05;4.22;;;20.00;55.30;;;;;;6296803;28;20056;-73
2021/06/26 05:21:48;;;;;;;11.30;4.95;;;20.00;55.30;;;;;;6295201;28;20036;-75
2021/06/26 05:24:49;;;;;;;14.15;5.68;;;20.00;55.20;;;;;;6296134;28;20036;-73
2021/06/26 05:27:50;;;;;;;13.40;5.53;;;20.10;55.20;;;;;;6312605;28;20108;-73
2021/06/26 05:30:51;;;;;;;14.00;5.28;;;20.10;55.10;;;;;;6296228;28;20519;-73
2021/06/26 05:33:52;;;;;;;10.50;5.10;;;20.20;55.10;;;;;;6294658;28;20029;-74
2021/06/26 05:36:53;;;;;;;9.57;4.32;;;20.30;55.10;;;;;;6254302;28;20446;-73
2021/06/26 05:39:55;;;;;;;9.25;4.20;;;20.40;55.00;;;;;;6265027;28;20158;-73
2021/06/26 05:42:56;;;;;;;8.52;2.67;;;20.40;54.90;;;;;;6297149;28;20029;-74
2021/06/26 05:45:57;;;;;;;5.75;2.95;;;20.50;54.70;;;;;;6295905;28;20043;-74
2021/06/26 05:48:59;;;;;;;6.63;3.10;;;20.50;54.30;;;;;;6312570;28;20047;-74
2021/06/26 05:52:00;;;;;;;8.55;3.38;;;20.50;54.10;;;;;;6295619;28;20085;-74
2021/06/26 05:55:01;;;;;;;3.88;2.42;;;20.60;54.00;;;;;;6295814;28;20040;-74
2021/06/26 05:58:05;;;;;;;5.82;3.13;;;20.50;53.90;;;;;;6293975;28;20345;-74
2021/06/26 06:01:10;;;;;;;4.10;2.72;;;20.60;54.10;;;;;;6276896;28;20029;-74
2021/06/26 06:04:11;;;;;;;4.43;2.78;;;20.60;54.30;;;;;;6285115;28;20033;-74
2021/06/26 06:07:12;;;;;;;5.60;2.83;;;20.70;54.60;;;;;;6310738;28;20377;-74
2021/06/26 06:10:16;;;;;;;3.28;2.13;;;20.70;54.60;;;;;;6281205;28;20032;-74
2021/06/26 06:13:22;;;;;;;2.60;1.98;;;20.70;54.70;;;;;;6298878;28;20469;-74
2021/06/26 06:16:26;;;;;;;3.85;2.50;;;20.80;54.30;;;;;;6299776;28;20032;-74
2021/06/26 06:19:27;;;;;;;4.25;2.70;;;20.80;54.00;;;;;;6299471;28;20074;-74
2021/06/26 06:22:28;;;;;;;6.85;3.13;;;20.90;53.90;;;;;;6299318;28;20063;-74
2021/06/26 06:25:32;;;;;;;4.22;2.38;;;20.90;54.00;;;;;;6298989;28;20056;-74
2021/06/26 06:28:33;;;;;;;4.13;2.65;;;21.00;53.90;;;;;;6300089;28;20052;-73
2021/06/26 06:31:34;;;;;;;4.05;2.42;;;21.10;53.80;;;;;;6316107;28;20119;-74
2021/06/26 06:34:35;;;;;;;3.50;2.00;;;21.10;53.60;;;;;;6275428;28;20048;-74
2021/06/26 06:37:37;;;;;;;4.63;2.60;;;21.20;53.60;;;;;;6274245;28;20045;-74
2021/06/26 06:40:39;;;;;;;5.50;2.40;;;21.20;53.50;;;;;;6273909;28;20446;-73
2021/06/26 06:43:40;;;;;;;6.93;3.10;;;21.30;53.40;;;;;;6277770;28;20044;-73
2021/06/26 06:46:41;;;;;;;5.13;2.97;;;21.40;53.20;;;;;;6273241;28;20372;-73
2021/06/26 06:49:42;;;;;;;5.25;3.50;;;21.50;53.00;;;;;;6275169;28;20105;-75
2021/06/26 06:52:44;;;;;;;5.38;3.08;;;21.60;52.80;;;;;;6315321;28;20076;-73
2021/06/26 06:55:50;;;;;;;6.80;2.75;;;21.70;52.60;;;;;;6298646;28;20409;-74
2021/06/26 06:58:51;;;;;;;6.03;3.10;;;21.80;52.50;;;;;;6295791;28;20052;-74
2021/06/26 07:01:53;;;;;;;5.43;3.40;;;21.90;52.30;;;;;;6298208;28;20032;-74
2021/06/26 07:04:54;;;;;;;8.88;3.08;;;22.00;52.20;;;;;;6293521;28;20037;-74
2021/06/26 07:07:55;;;;;;;9.70;3.15;;;22.20;51.90;;;;;;6274888;28;20052;-74
2021/06/26 07:10:57;;;;;;;4.13;2.60;;;22.40;51.50;;;;;;6290369;28;20045;-74
2021/06/26 07:13:58;;;;;;;7.10;2.85;;;22.50;51.10;;;;;;6290270;28;20035;-74
2021/06/26 07:16:59;;;;;;;3.88;2.58;;;23.00;50.30;;;;;;6274539;28;20036;-74
2021/06/26 07:20:00;;;;;;;4.50;2.67;;;23.50;49.40;;;;;;6271011;28;20029;-74
2021/06/26 07:23:02;;;;;;;3.35;2.35;;;23.80;48.60;;;;;;6273209;28;20079;-74
2021/06/26 07:26:04;;;;;;;2.95;1.90;;;23.90;48.30;;;;;;6256544;28;20114;-74
2021/06/26 07:29:06;;;;;;;4.10;2.10;;;23.80;47.90;;;;;;6273682;28;20335;-74
2021/06/26 07:32:08;;;;;;;5.05;2.50;;;23.80;48.00;;;;;;6281628;28;20441;-74
2021/06/26 07:35:09;;;;;;;8.75;3.47;;;23.80;48.10;;;;;;6314470;28;20024;-74
2021/06/26 07:38:10;;;;;;;4.28;3.08;;;23.90;48.00;;;;;;6280881;28;20033;-74
2021/06/26 07:41:11;;;;;;;7.55;3.55;;;23.90;47.70;;;;;;6279553;28;20044;-74
2021/06/26 07:44:13;;;;;;;4.20;2.72;;;23.90;47.60;;;;;;6314172;28;20020;-74
2021/06/26 07:47:14;;;;;;;5.15;2.80;;;24.00;47.40;;;;;;6314217;28;20047;-74
2021/06/26 07:50:15;;;;;;;4.18;2.45;;;24.00;47.10;;;;;;6274920;28;20032;-75
2021/06/26 07:53:18;;;;;;;3.03;1.98;;;24.20;46.90;;;;;;6288552;28;20048;-74
2021/06/26 07:56:19;;;;;;;7.90;2.90;;;24.20;46.70;;;;;;6287473;28;20162;-74
2021/06/26 07:59:20;;;;;;;4.85;3.20;;;24.30;46.30;;;;;;6297012;28;20048;-74
2021/06/26 08:02:22;;;;;;;4.05;2.92;;;24.40;46.10;;;;;;6295619;28;20033;-74
2021/06/26 08:05:23;;;;;;;7.15;3.60;;;24.50;45.90;;;;;;6313069;28;20036;-75
2021/06/26 08:08:25;;;;;;;4.50;2.20;;;24.50;45.60;;;;;;6270364;28;20390;-75
2021/06/26 08:11:26;;;;;;;6.32;2.53;;;24.70;45.40;;;;;;6296320;28;20178;-74
2021/06/26 08:14:27;;;;;;;4.40;2.30;;;24.80;45.00;;;;;;6298045;28;20437;-75
2021/06/26 08:17:28;;;;;;;7.07;2.42;;;24.90;45.00;;;;;;6294637;28;20064;-75
2021/06/26 08:20:30;;;;;;;4.35;2.42;;;24.90;44.60;;;;;;6255197;28;20047;-73
2021/06/26 08:23:31;;;;;;;3.78;2.22;;;25.00;44.30;;;;;;6272628;28;20470;-74
2021/06/26 08:26:34;;;;;;;5.88;2.42;;;25.10;44.20;;;;;;6271889;28;20458;-74
2021/06/26 08:29:35;;;;;;;5.53;2.03;;;25.20;44.10;;;;;;6267128;28;20037;-74
2021/06/26 08:32:36;;;;;;;3.58;2.47;;;25.30;43.80;;;;;;6277729;28;20675;-74
2021/06/26 08:35:38;;;;;;;4.40;2.38;;;25.40;43.60;;;;;;6295874;28;20029;-74
2021/06/26 08:38:39;;;;;;;3.47;2.20;;;25.50;43.50;;;;;;6312915;28;20036;-74
2021/06/26 08:41:45;;;;;;;3.28;2.10;;;25.50;43.20;;;;;;6295492;28;20330;-74
2021/06/26 08:44:49;;;;;;;2.60;2.10;;;25.60;43.20;;;;;;6297580;28;20529;-74
2021/06/26 08:47:52;;;;;;;2.88;1.85;;;25.70;43.10;;;;;;6297241;28;20028;-74
2021/06/26 08:50:53;;;;;;;2.65;1.98;;;25.80;42.90;;;;;;6293568;28;20108;-74
2021/06/26 08:53:55;;;;;;;2.88;2.38;;;25.90;42.70;;;;;;6296546;28;20037;-75
2021/06/26 08:56:56;;;;;;;2.60;2.10;;;25.90;42.70;;;;;;6280410;28;20032;-74
2021/06/26 08:59:58;;;;;;;3.13;1.65;;;25.80;42.70;;;;;;6297541;28;20051;-73
2021/06/26 09:03:14;;;;;;;3.10;2.22;;;25.80;42.50;;;;;;6287165;28;20374;-73
2021/06/26 09:06:16;;;;;;;6.32;2.10;;;25.80;42.40;;;;;;6229268;28;20044;-74
2021/06/26 09:09:28;;;;;;;2.45;2.10;;;25.90;42.10;;;;;;6246223;28;20098;-74
2021/06/26 09:12:37;;;;;;;4.82;2.30;;;26.00;41.90;;;;;;6247436;28;20132;-74
2021/06/26 09:15:38;;;;;;;4.72;2.20;;;26.00;41.70;;;;;;6245339;28;20056;-74
2021/06/26 09:18:47;;;;;;;3.75;2.00;;;26.10;41.40;;;;;;6264772;28;20037;-74
2021/06/26 09:22:06;;;;;;;3.45;2.25;;;26.00;41.30;;;;;;6267936;28;20438;-74
2021/06/26 09:25:30;;;;;;;3.28;2.10;;;26.00;41.30;;;;;;6275495;28;20037;-74
2021/06/26 09:28:32;;;;;;;5.40;2.10;;;26.10;41.40;;;;;;6293552;28;20047;-74
2021/06/26 09:31:33;;;;;;;3.72;2.60;;;26.20;41.20;;;;;;6293239;28;20492;-76
2021/06/26 09:34:44;;;;;;;4.03;2.22;;;26.30;41.30;;;;;;6294195;28;20036;-74
2021/06/26 09:37:45;;;;;;;3.53;2.42;;;26.40;41.20;;;;;;6293238;28;20098;-74
2021/06/26 09:40:47;;;;;;;4.20;2.50;;;26.50;41.10;;;;;;6293020;28;20044;-74
2021/06/26 09:43:49;;;;;;;2.45;2.15;;;26.60;41.10;;;;;;6315471;28;20036;-74
2021/06/26 09:46:51;;;;;;;3.70;2.00;;;26.70;41.10;;;;;;6298195;28;20037;-74
2021/06/26 09:49:53;;;;;;;4.25;2.30;;;26.80;40.80;;;;;;6298419;28;20032;-74
2021/06/26 09:52:56;;;;;;;2.72;2.00;;;26.80;40.60;;;;;;6259842;28;20037;-75
2021/06/26 09:55:58;;;;;;;5.80;2.20;;;26.90;40.30;;;;;;6273914;28;20037;-73
2021/06/26 09:59:00;;;;;;;2.55;2.03;;;26.90;40.70;;;;;;6273018;28;20033;-74
2021/06/26 10:02:01;;;;;;;3.72;2.10;;;27.00;39.80;;;;;;6258945;28;20037;-73
2021/06/26 10:05:04;;;;;;;5.88;2.25;;;27.10;39.70;;;;;;6295170;28;20025;-74
2021/06/26 10:08:06;;;;;;;3.33;2.28;;;27.10;39.80;;;;;;6273527;28;20383;-73
2021/06/26 10:11:08;;;;;;;2.60;1.80;;;27.20;39.80;;;;;;6273648;28;20461;-74
2021/06/26 10:14:11;;;;;;;3.08;1.90;;;27.30;39.50;;;;;;6280966;28;20039;-74
2021/06/26 10:17:14;;;;;;;5.30;2.03;;;27.30;39.30;;;;;;6298218;28;20047;-74
2021/06/26 10:20:18;;;;;;;6.28;1.90;;;27.40;39.30;;;;;;6272809;28;20044;-74
2021/06/26 10:23:19;;;;;;;3.88;1.95;;;27.40;39.30;;;;;;6294394;28;20056;-74
2021/06/26 10:26:22;;;;;;;2.88;1.88;;;27.60;39.40;;;;;;6297593;28;20342;-74
2021/06/26 10:29:34;;;;;;;5.18;2.30;;;27.70;39.10;;;;;;6272025;28;20052;-75
2021/06/26 10:32:36;;;;;;;6.18;2.30;;;27.80;39.00;;;;;;6262323;28;20496;-74
2021/06/26 10:35:53;;;;;;;5.25;2.97;;;27.90;38.80;;;;;;6269289;28;20061;-74
2021/06/26 10:38:54;;;;;;;3.13;2.00;;;28.00;38.60;;;;;;6262261;28;20037;-74
2021/06/26 10:42:05;;;;;;;4.40;2.25;;;28.10;38.30;;;;;;6275856;28;20033;-73
2021/06/26 10:45:24;;;;;;;4.70;2.20;;;28.10;38.30;;;;;;6276470;28;20357;-74
2021/06/26 10:48:27;;;;;;;2.10;1.85;;;28.20;38.20;;;;;;6298306;28;20384;-75
2021/06/26 10:51:35;;;;;;;1.83;1.55;;;28.10;38.20;;;;;;6293061;28;20043;-74
2021/06/26 10:54:37;;;;;;;2.13;1.83;;;28.10;38.30;;;;;;6297327;28;20454;-74
2021/06/26 10:57:48;;;;;;;2.25;1.67;;;28.10;38.40;;;;;;6280862;28;20082;-74
2021/06/26 11:00:50;;;;;;;2.30;1.92;;;28.00;38.50;;;;;;6297919;28;20354;-74
2021/06/26 11:04:04;;;;;;;2.95;1.80;;;28.00;38.50;;;;;;6280189;28;20025;-74
2021/06/26 11:07:08;;;;;;;2.97;1.83;;;28.00;38.50;;;;;;6271180;28;20044;-74
2021/06/26 11:10:12;;;;;;;2.72;1.90;;;28.60;37.70;;;;;;6271996;28;20049;-74
2021/06/26 11:13:25;;;;;;;4.88;1.92;;;30.00;35.70;;;;;;6288713;28;20037;-74
2021/06/26 11:16:26;;;;;;;5.50;1.73;;;31.60;33.70;;;;;;6248953;28;20037;-75
2021/06/26 11:19:34;;;;;;;9.35;1.80;;;32.90;31.60;;;;;;6270331;28;20052;-75
2021/06/26 11:22:35;;;;;;;;;;;33.70;29.80;;;;;;6288031;28;20491;-75
2021/06/26 11:25:36;;;;;;;2.00;1.80;;;34.50;29.10;;;;;;6294784;28;19916;-75
2021/06/26 11:28:42;;;;;;;4.57;2.25;;;34.90;28.30;;;;;;6312381;28;20040;-75
2021/06/26 11:31:43;;;;;;;1.98;1.52;;;35.30;27.80;;;;;;6281610;28;20429;-75
2021/06/26 11:34:53;;;;;;;1.70;1.55;;;35.70;27.10;;;;;;6246852;28;20485;-75
2021/06/26 11:37:54;;;;;;;2.20;1.40;;;35.90;26.70;;;;;;6316621;28;20125;-74
2021/06/26 11:41:03;;;;;;;2.00;1.58;;;36.20;26.20;;;;;;6297355;28;20052;-75
2021/06/26 11:44:06;;;;;;;2.65;1.58;;;36.40;25.30;;;;;;6304757;28;20039;-75
2021/06/26 11:47:09;;;;;;;1.60;1.50;;;36.60;25.20;;;;;;6296251;28;20078;-75
2021/06/26 11:50:15;;;;;;;2.15;1.50;;;37.10;24.60;;;;;;6296208;28;20462;-75
2021/06/26 11:53:17;;;;;;;1.67;1.33;;;37.50;23.70;;;;;;6299184;28;20111;-75
2021/06/26 11:56:19;;;;;;;2.00;1.70;;;37.70;23.50;;;;;;6260349;28;20103;-75
2021/06/26 11:59:22;;;;;;;5.22;1.48;;;37.80;23.50;;;;;;6299876;28;20461;-75
2021/06/26 12:02:31;;;;;;;1.90;1.55;;;38.10;23.20;;;;;;6314743;28;20083;-75
2021/06/26 12:05:33;;;;;;;2.90;1.45;;;38.30;22.90;;;;;;6276134;28;20067;-75
2021/06/26 12:08:46;;;;;;;2.65;1.30;;;38.50;22.50;;;;;;6294570;28;20043;-75
2021/06/26 12:11:49;;;;;;;1.98;1.45;;;38.50;22.10;;;;;;6302211;28;20543;-75
2021/06/26 12:14:51;;;;;;;2.17;1.45;;;38.60;21.80;;;;;;6301653;28;20110;-75
2021/06/26 12:18:05;;;;;;;1.23;1.13;;;38.60;21.60;;;;;;6307041;28;20037;-73
2021/06/26 12:21:08;;;;;;;2.13;1.50;;;38.60;21.70;;;;;;6278931;28;20213;-74
2021/06/26 12:24:22;;;;;;;1.83;1.38;;;38.70;21.40;;;;;;6293830;28;20377;-74
2021/06/26 12:27:24;;;;;;;1.73;1.50;;;38.60;21.30;;;;;;6295397;28;20037;-74
2021/06/26 12:30:26;;;;;;;2.28;1.40;;;38.80;21.10;;;;;;6295830;28;20055;-74
2021/06/26 12:33:27;;;;;;;6.07;1.45;;;38.80;21.30;;;;;;6275938;28;20064;-74
2021/06/26 12:36:28;;;;;;;1.98;1.55;;;38.70;21.10;;;;;;6270241;28;20056;-75
2021/06/26 12:39:34;;;;;;;2.35;1.38;;;38.60;21.20;;;;;;6278162;28;20337;-75
2021/06/26 12:42:55;;;;;;;1.27;1.10;;;38.60;21.20;;;;;;6300816;28;20055;-74
2021/06/26 12:45:56;;;;;;;1.80;1.33;;;38.60;21.20;;;;;;6311525;28;20036;-74
2021/06/26 12:49:06;;;;;;;2.55;1.33;;;38.50;21.30;;;;;;6311866;28;20035;-74
2021/06/26 12:52:15;;;;;;;1.35;1.25;;;38.40;21.40;;;;;;6294145;28;20044;-74
2021/06/26 12:55:18;;;;;;;2.40;1.40;;;38.20;21.50;;;;;;6296522;28;20032;-73
2021/06/26 12:58:19;;;;;;;3.05;1.38;;;38.00;21.50;;;;;;6278813;28;20112;-75
2021/06/26 13:01:22;;;;;;;1.38;1.17;;;38.10;21.60;;;;;;6279044;28;20048;-74
2021/06/26 13:04:50;;;;;;;2.25;1.58;;;38.40;21.50;;;;;;6314131;28;20047;-74
2021/06/26 13:08:05;;;;;;;4.72;1.60;;;38.80;21.20;;;;;;6281474;28;20032;-75
2021/06/26 13:11:06;;;;;;;8.75;1.60;;;39.20;20.80;;;;;;6261817;28;20033;-74
2021/06/26 13:14:09;;;;;;;3.40;1.40;;;39.50;20.60;;;;;;6270293;28;20047;-73
2021/06/26 13:17:12;;;;;;;1.65;1.15;;;39.90;20.50;;;;;;6284249;28;20052;-74
2021/06/26 13:20:14;;;;;;;1.45;1.30;;;40.70;20.00;;;;;;6298992;28;20466;-74
2021/06/26 13:23:15;;;;;;;3.25;1.30;;;41.60;19.50;;;;;;6273878;28;20116;-74
2021/06/26 13:26:16;;;;;;;3.97;1.98;;;42.40;18.80;;;;;;6274213;28;20033;-74
2021/06/26 13:29:18;;;;;;;1.98;1.30;;;42.90;18.40;;;;;;6289107;28;20037;-74
2021/06/26 13:32:19;;;;;;;1.83;1.55;;;43.40;18.20;;;;;;6299841;28;20064;-75
2021/06/26 13:35:23;;;;;;;2.45;1.40;;;43.70;18.00;;;;;;6306835;28;20040;-75
2021/06/26 13:38:24;;;;;;;3.03;1.40;;;44.20;18.00;;;;;;6266378;28;20032;-74
2021/06/26 13:41:26;;;;;;;1.70;1.30;;;44.60;17.40;;;;;;6299296;28;20033;-75
2021/06/26 13:44:27;;;;;;;2.30;1.60;;;44.90;17.00;;;;;;6300266;28;20464;-75
2021/06/26 13:47:28;;;;;;;3.42;1.42;;;45.30;16.60;;;;;;6299151;28;20036;-75
2021/06/26 13:50:30;;;;;;;2.38;1.25;;;45.80;16.50;;;;;;6299434;28;20048;-76
2021/06/26 13:53:31;;;;;;;4.70;1.50;;;46.10;16.10;;;;;;6298025;28;20090;-75
2021/06/26 13:56:32;;;;;;;1.98;1.00;;;46.40;16.00;;;;;;6298807;28;20049;-75
2021/06/26 13:59:33;;;;;;;1.60;1.08;;;46.50;15.90;;;;;;6297433;28;20040;-75
2021/06/26 14:02:35;;;;;;;3.03;1.20;;;46.80;15.60;;;;;;6304407;28;20028;-74
2021/06/26 14:05:36;;;;;;;2.38;1.33;;;47.20;15.30;;;;;;6321741;28;20032;-75
2021/06/26 14:08:39;;;;;;;1.42;1.20;;;47.30;15.30;;;;;;6300828;28;20056;-74
2021/06/26 14:11:40;;;;;;;2.30;1.20;;;47.50;15.20;;;;;;6293446;28;20101;-74
2021/06/26 14:14:42;;;;;;;1.40;1.30;;;47.40;15.20;;;;;;6297909;28;20087;-74
2021/06/26 14:17:43;;;;;;;2.17;1.02;;;47.70;15.20;;;;;;6295907;28;20040;-75
2021/06/26 14:20:45;;;;;;;2.03;1.27;;;47.80;15.20;;;;;;6292593;28;20098;-74
2021/06/26 14:23:46;;;;;;;1.40;1.10;;;47.80;15.00;;;;;;6297182;28;20052;-74
2021/06/26 14:26:47;;;;;;;2.42;1.42;;;47.50;15.20;;;;;;6297521;28;20051;-74
2021/06/26 14:29:48;;;;;;;1.77;1.40;;;47.30;15.30;;;;;;6280656;28;20048;-74
2021/06/26 14:32:51;;;;;;;2.50;1.40;;;47.30;15.40;;;;;;6278744;28;20040;-75
2021/06/26 14:35:52;;;;;;;1.88;1.35;;;47.30;15.40;;;;;;6231079;28;20415;-75
2021/06/26 14:38:54;;;;;;;3.25;1.55;;;47.20;15.40;;;;;;6291181;28;20106;-74
2021/06/26 14:41:56;;;;;;;1.70;1.40;;;47.50;15.40;;;;;;6298108;28;20480;-76
2021/06/26 14:44:57;;;;;;;2.85;1.58;;;47.60;15.20;;;;;;6296000;28;20446;-73
2021/06/26 14:47:59;;;;;;;1.20;1.10;;;47.60;15.30;;;;;;6295943;28;20080;-75
2021/06/26 14:51:00;;;;;;;2.35;1.35;;;47.80;15.10;;;;;;6310551;28;20450;-75
2021/06/26 14:54:02;;;;;;;3.75;1.40;;;48.00;15.20;;;;;;6297424;28;20116;-75
2021/06/26 14:57:05;;;;;;;1.33;1.15;;;48.20;15.00;;;;;;6279648;28;20056;-75
2021/06/26 15:00:07;;;;;;;2.20;1.40;;;48.30;14.90;;;;;;6273648;28;20025;-76
2021/06/26 15:03:08;;;;;;;3.92;1.50;;;48.40;14.90;;;;;;6277649;28;20040;-75
2021/06/26 15:06:10;;;;;;;1.30;1.20;;;48.40;14.70;;;;;;6295182;28;20052;-75
2021/06/26 15:09:12;;;;;;;3.45;1.27;;;48.20;14.80;;;;;;6296351;28;20032;-75
2021/06/26 15:12:13;;;;;;;2.65;1.50;;;48.20;14.80;;;;;;6279843;28;20040;-75
2021/06/26 15:15:14;;;;;;;1.10;1.00;;;48.10;14.80;;;;;;6313027;28;20032;-74
2021/06/26 15:18:15;;;;;;;1.98;1.60;;;47.80;15.00;;;;;;6296665;28;20174;-74
2021/06/26 15:21:18;;;;;;;2.58;1.20;;;47.60;15.10;;;;;;6295030;28;20088;-74
2021/06/26 15:24:19;;;;;;;2.67;1.25;;;47.40;15.30;;;;;;6313263;28;20400;-74
2021/06/26 15:27:20;;;;;;;1.83;1.45;;;47.40;15.20;;;;;;6272334;28;20049;-74
2021/06/26 15:30:22;;;;;;;1.80;1.60;;;47.10;15.30;;;;;;6296037;28;20043;-74
2021/06/26 15:33:23;;;;;;;1.50;1.40;;;46.70;15.90;;;;;;6258048;28;20175;-75
2021/06/26 15:36:24;;;;;;;1.88;1.45;;;46.40;15.60;;;;;;6254307;28;20033;-74
2021/06/26 15:39:27;;;;;;;1.40;1.30;;;46.50;15.70;;;;;;6267387;28;20045;-74
2021/06/26 15:42:28;;;;;;;1.90;1.30;;;46.20;15.60;;;;;;6262278;28;20040;-75
2021/06/26 15:45:30;;;;;;;1.42;1.27;;;46.00;15.80;;;;;;6269355;28;20056;-75
2021/06/26 15:48:31;;;;;;;1.15;1.05;;;45.90;15.80;;;;;;6270697;28;20068;-75